sensor_id;sensor_type;location;lat;lon;timestamp;pressure;altitude;pressure_sealevel;temperature;humidity
52957;BME280;38819;42.692;23.342;2023-02-28T00:01:12;95740.38;;;8.93;79.66
52957;BME280;38819;42.692;23.342;2023-02-28T00:03:38;95759.22;;;8.93;79.66
52957;BME280;38819;42.692;23.342;2023-02-28T00:06:04;95764.88;;;8.92;80.01
52957;BME280;38819;42.692;23.342;2023-02-28T00:08:30;95763.00;;;8.87;79.95
52957;BME280;38819;42.692;23.342;2023-02-28T00:10:56;95766.50;;;8.87;79.94
52957;BME280;38819;42.692;23.342;2023-02-28T00:13:21;95755.19;;;8.90;79.28
52957;BME280;38819;42.692;23.342;2023-02-28T00:15:47;95766.78;;;8.86;79.09
52957;BME280;38819;42.692;23.342;2023-02-28T00:18:12;95764.34;;;8.79;79.27
52957;BME280;38819;42.692;23.342;2023-02-28T00:20:38;95775.66;;;8.76;79.50
52957;BME280;38819;42.692;23.342;2023-02-28T00:23:04;95775.66;;;8.86;79.24
52957;BME280;38819;42.692;23.342;2023-02-28T00:25:29;95772.44;;;8.89;79.29
52957;BME280;38819;42.692;23.342;2023-02-28T00:27:54;95786.69;;;8.85;79.07
52957;BME280;38819;42.692;23.342;2023-02-28T00:30:22;95794.78;;;8.85;78.93
52957;BME280;38819;42.692;23.342;2023-02-28T00:32:48;95783.72;;;8.66;79.06
52957;BME280;38819;42.692;23.342;2023-02-28T00:35:14;95775.53;;;8.40;80.28
52957;BME280;38819;42.692;23.342;2023-02-28T00:37:40;95778.19;;;8.30;80.81
52957;BME280;38819;42.692;23.342;2023-02-28T00:40:06;95789.44;;;8.16;81.45
52957;BME280;38819;42.692;23.342;2023-02-28T00:42:35;95794.28;;;8.20;81.20
52957;BME280;38819;42.692;23.342;2023-02-28T00:45:02;95783.28;;;8.21;81.42
52957;BME280;38819;42.692;23.342;2023-02-28T00:47:29;95775.47;;;8.20;81.06
52957;BME280;38819;42.692;23.342;2023-02-28T00:49:55;95768.97;;;8.10;81.19
52957;BME280;38819;42.692;23.342;2023-02-28T00:52:20;95766.53;;;8.04;81.29
52957;BME280;38819;42.692;23.342;2023-02-28T00:54:46;95761.28;;;7.82;81.71
52957;BME280;38819;42.692;23.342;2023-02-28T00:57:12;95768.09;;;7.94;81.38
52957;BME280;38819;42.692;23.342;2023-02-28T00:59:37;95757.59;;;7.93;81.05
52957;BME280;38819;42.692;23.342;2023-02-28T01:02:03;95767.53;;;7.92;81.18
52957;BME280;38819;42.692;23.342;2023-02-28T01:04:28;95775.91;;;8.01;81.23
52957;BME280;38819;42.692;23.342;2023-02-28T01:06:54;95765.72;;;8.08;80.94
52957;BME280;38819;42.692;23.342;2023-02-28T01:09:19;95776.72;;;8.02;80.62
52957;BME280;38819;42.692;23.342;2023-02-28T01:11:45;95773.28;;;8.16;80.56
52957;BME280;38819;42.692;23.342;2023-02-28T01:14:15;95763.09;;;8.24;80.18
52957;BME280;38819;42.692;23.342;2023-02-28T01:16:42;95758.81;;;8.28;79.67
52957;BME280;38819;42.692;23.342;2023-02-28T01:19:07;95753.13;;;8.19;79.70
52957;BME280;38819;42.692;23.342;2023-02-28T01:21:33;95761.44;;;8.12;80.04
52957;BME280;38819;42.692;23.342;2023-02-28T01:24:00;95767.59;;;8.08;79.82
52957;BME280;38819;42.692;23.342;2023-02-28T01:26:26;95763.28;;;8.07;79.82
52957;BME280;38819;42.692;23.342;2023-02-28T01:28:52;95768.72;;;8.12;80.10
52957;BME280;38819;42.692;23.342;2023-02-28T01:31:18;95763.59;;;8.05;79.76
52957;BME280;38819;42.692;23.342;2023-02-28T01:33:44;95767.31;;;7.99;80.06
52957;BME280;38819;42.692;23.342;2023-02-28T01:36:16;95765.44;;;8.05;79.90
52957;BME280;38819;42.692;23.342;2023-02-28T01:38:42;95762.72;;;8.00;79.80
52957;BME280;38819;42.692;23.342;2023-02-28T01:41:15;95760.78;;;7.85;80.09
52957;BME280;38819;42.692;23.342;2023-02-28T01:46:10;95764.84;;;7.87;80.25
52957;BME280;38819;42.692;23.342;2023-02-28T01:48:38;95766.19;;;7.90;80.21
52957;BME280;38819;42.692;23.342;2023-02-28T01:51:11;95771.56;;;7.90;80.01
52957;BME280;38819;42.692;23.342;2023-02-28T01:53:43;95769.38;;;7.87;80.24
52957;BME280;38819;42.692;23.342;2023-02-28T01:56:13;95761.63;;;7.90;79.87
52957;BME280;38819;42.692;23.342;2023-02-28T01:58:47;95776.66;;;7.86;79.78
52957;BME280;38819;42.692;23.342;2023-02-28T02:01:12;95779.34;;;7.86;79.85
52957;BME280;38819;42.692;23.342;2023-02-28T02:03:50;95770.22;;;7.87;79.90
52957;BME280;38819;42.692;23.342;2023-02-28T02:06:27;95770.22;;;7.87;79.85
52957;BME280;38819;42.692;23.342;2023-02-28T02:08:54;95777.75;;;7.90;79.72
52957;BME280;38819;42.692;23.342;2023-02-28T02:11:22;95765.38;;;7.89;79.67
52957;BME280;38819;42.692;23.342;2023-02-28T02:27:23;95758.72;;;8.02;79.39
52957;BME280;38819;42.692;23.342;2023-02-28T02:37:52;95775.63;;;7.97;79.65
52957;BME280;38819;42.692;23.342;2023-02-28T02:40:23;95767.59;;;8.03;79.43
52957;BME280;38819;42.692;23.342;2023-02-28T02:42:51;95774.81;;;7.92;79.67
52957;BME280;38819;42.692;23.342;2023-02-28T02:45:24;95778.56;;;7.91;79.77
52957;BME280;38819;42.692;23.342;2023-02-28T02:47:50;95783.94;;;7.91;79.70
52957;BME280;38819;42.692;23.342;2023-02-28T02:50:24;95780.13;;;7.82;80.37
52957;BME280;38819;42.692;23.342;2023-02-28T02:52:56;95770.75;;;7.89;80.32
52957;BME280;38819;42.692;23.342;2023-02-28T02:55:24;95776.44;;;7.98;80.38
52957;BME280;38819;42.692;23.342;2023-02-28T02:57:58;95784.47;;;7.93;80.56
52957;BME280;38819;42.692;23.342;2023-02-28T03:00:31;95772.06;;;7.82;80.89
52957;BME280;38819;42.692;23.342;2023-02-28T03:02:58;95785.59;;;7.97;80.51
52957;BME280;38819;42.692;23.342;2023-02-28T03:08:09;95802.31;;;8.04;80.42
52957;BME280;38819;42.692;23.342;2023-02-28T03:10:38;95803.69;;;8.12;80.27
52957;BME280;38819;42.692;23.342;2023-02-28T03:17:14;95808.84;;;8.19;79.19
52957;BME280;38819;42.692;23.342;2023-02-28T03:25:06;95813.09;;;8.09;78.93
52957;BME280;38819;42.692;23.342;2023-02-28T03:30:22;95830.75;;;7.95;79.44
52957;BME280;38819;42.692;23.342;2023-02-28T03:32:52;95832.94;;;7.98;79.96
52957;BME280;38819;42.692;23.342;2023-02-28T03:35:23;95830.53;;;8.02;79.74
52957;BME280;38819;42.692;23.342;2023-02-28T03:37:53;95832.19;;;8.08;79.25
52957;BME280;38819;42.692;23.342;2023-02-28T03:40:21;95836.03;;;8.22;78.79
52957;BME280;38819;42.692;23.342;2023-02-28T03:42:50;95829.75;;;8.06;79.21
52957;BME280;38819;42.692;23.342;2023-02-28T03:45:25;95834.56;;;7.99;79.80
52957;BME280;38819;42.692;23.342;2023-02-28T03:48:00;95832.72;;;8.10;79.69
52957;BME280;38819;42.692;23.342;2023-02-28T03:50:37;95831.91;;;8.09;79.88
52957;BME280;38819;42.692;23.342;2023-02-28T03:55:45;95843.00;;;8.18;79.27
52957;BME280;38819;42.692;23.342;2023-02-28T04:00:46;95839.22;;;8.14;79.29
52957;BME280;38819;42.692;23.342;2023-02-28T04:03:14;95835.69;;;8.13;79.62
52957;BME280;38819;42.692;23.342;2023-02-28T04:05:54;95847.03;;;8.15;79.40
52957;BME280;38819;42.692;23.342;2023-02-28T04:08:23;95842.16;;;8.12;79.59
52957;BME280;38819;42.692;23.342;2023-02-28T04:10:58;95840.03;;;8.20;79.63
52957;BME280;38819;42.692;23.342;2023-02-28T04:13:26;95843.03;;;8.28;79.31
52957;BME280;38819;42.692;23.342;2023-02-28T04:15:52;95844.41;;;8.31;79.13
52957;BME280;38819;42.692;23.342;2023-02-28T04:18:18;95838.72;;;8.22;79.52
52957;BME280;38819;42.692;23.342;2023-02-28T04:20:44;95833.34;;;8.22;79.51
52957;BME280;38819;42.692;23.342;2023-02-28T04:23:09;95830.94;;;8.31;79.83
52957;BME280;38819;42.692;23.342;2023-02-28T04:25:34;95833.38;;;8.32;79.43
52957;BME280;38819;42.692;23.342;2023-02-28T04:28:00;95832.25;;;8.28;79.47
52957;BME280;38819;42.692;23.342;2023-02-28T04:30:25;95841.16;;;8.29;79.93
52957;BME280;38819;42.692;23.342;2023-02-28T04:32:51;95840.06;;;8.25;79.53
52957;BME280;38819;42.692;23.342;2023-02-28T04:35:16;95847.88;;;8.26;79.48
52957;BME280;38819;42.692;23.342;2023-02-28T04:37:41;95842.50;;;8.26;79.83
52957;BME280;38819;42.692;23.342;2023-02-28T04:40:07;95846.81;;;8.27;79.53
52957;BME280;38819;42.692;23.342;2023-02-28T04:42:33;95846.16;;;8.10;80.00
52957;BME280;38819;42.692;23.342;2023-02-28T04:45:04;95847.50;;;8.02;80.16
52957;BME280;38819;42.692;23.342;2023-02-28T04:47:30;95852.03;;;8.02;80.34
52957;BME280;38819;42.692;23.342;2023-02-28T04:49:55;95853.97;;;8.06;79.87
52957;BME280;38819;42.692;23.342;2023-02-28T04:52:21;95865.56;;;8.12;79.88
52957;BME280;38819;42.692;23.342;2023-02-28T04:54:46;95871.72;;;8.07;79.75
52957;BME280;38819;42.692;23.342;2023-02-28T04:57:12;95862.56;;;8.08;79.72
52957;BME280;38819;42.692;23.342;2023-02-28T04:59:37;95865.47;;;7.96;79.62
52957;BME280;38819;42.692;23.342;2023-02-28T05:02:03;95873.22;;;7.88;80.15
52957;BME280;38819;42.692;23.342;2023-02-28T05:04:35;95866.28;;;7.92;79.98
52957;BME280;38819;42.692;23.342;2023-02-28T05:07:02;95862.53;;;7.98;80.03
52957;BME280;38819;42.692;23.342;2023-02-28T05:09:28;95863.06;;;8.00;80.04
52957;BME280;38819;42.692;23.342;2023-02-28T05:11:54;95864.94;;;8.00;80.11
52957;BME280;38819;42.692;23.342;2023-02-28T05:14:19;95868.16;;;7.96;79.77
52957;BME280;38819;42.692;23.342;2023-02-28T05:16:44;95860.09;;;7.96;79.97
52957;BME280;38819;42.692;23.342;2023-02-28T05:19:10;95869.53;;;7.99;80.05
52957;BME280;38819;42.692;23.342;2023-02-28T05:21:39;95876.00;;;8.03;79.52
52957;BME280;38819;42.692;23.342;2023-02-28T05:24:07;95882.72;;;8.01;79.71
52957;BME280;38819;42.692;23.342;2023-02-28T05:26:36;95887.59;;;8.04;79.57
52957;BME280;38819;42.692;23.342;2023-02-28T05:29:02;95890.38;;;8.19;79.14
52957;BME280;38819;42.692;23.342;2023-02-28T05:31:31;95885.78;;;8.20;78.88
52957;BME280;38819;42.692;23.342;2023-02-28T05:33:56;95889.47;;;8.08;78.88
52957;BME280;38819;42.692;23.342;2023-02-28T05:36:22;95898.38;;;8.09;79.09
52957;BME280;38819;42.692;23.342;2023-02-28T05:38:48;95898.38;;;8.09;79.43
52957;BME280;38819;42.692;23.342;2023-02-28T05:41:14;95894.09;;;8.13;79.34
52957;BME280;38819;42.692;23.342;2023-02-28T05:43:40;95898.63;;;8.07;79.49
52957;BME280;38819;42.692;23.342;2023-02-28T05:46:07;95898.38;;;8.09;79.26
52957;BME280;38819;42.692;23.342;2023-02-28T05:48:34;95898.66;;;8.12;79.42
52957;BME280;38819;42.692;23.342;2023-02-28T05:50:59;95901.66;;;8.16;78.98
52957;BME280;38819;42.692;23.342;2023-02-28T05:53:25;95901.66;;;8.16;79.26
52957;BME280;38819;42.692;23.342;2023-02-28T05:55:51;95909.69;;;8.11;79.10
52957;BME280;38819;42.692;23.342;2023-02-28T05:58:17;95915.38;;;8.20;79.02
52957;BME280;38819;42.692;23.342;2023-02-28T06:00:42;95924.00;;;8.22;78.99
52957;BME280;38819;42.692;23.342;2023-02-28T06:03:07;95913.50;;;8.20;78.81
52957;BME280;38819;42.692;23.342;2023-02-28T06:05:33;95903.34;;;8.27;78.82
52957;BME280;38819;42.692;23.342;2023-02-28T06:07:58;95907.09;;;8.26;78.61
52957;BME280;38819;42.692;23.342;2023-02-28T06:10:24;95906.06;;;8.32;78.31
52957;BME280;38819;42.692;23.342;2023-02-28T06:12:49;95907.63;;;8.28;78.48
52957;BME280;38819;42.692;23.342;2023-02-28T06:15:16;95901.69;;;8.26;78.55
52957;BME280;38819;42.692;23.342;2023-02-28T06:17:42;95898.47;;;8.24;78.43
52957;BME280;38819;42.692;23.342;2023-02-28T06:20:09;95902.78;;;8.25;78.58
52957;BME280;38819;42.692;23.342;2023-02-28T06:22:38;95905.03;;;8.01;79.01
52957;BME280;38819;42.692;23.342;2023-02-28T06:25:05;95904.44;;;7.89;79.55
52957;BME280;38819;42.692;23.342;2023-02-28T06:27:32;95915.94;;;7.79;80.50
52957;BME280;38819;42.692;23.342;2023-02-28T06:29:57;95897.59;;;7.76;80.69
52957;BME280;38819;42.692;23.342;2023-02-28T06:32:23;95905.72;;;7.81;80.77
52957;BME280;38819;42.692;23.342;2023-02-28T06:34:49;95914.28;;;7.78;80.34
52957;BME280;38819;42.692;23.342;2023-02-28T06:37:16;95922.19;;;7.57;80.87
52957;BME280;38819;42.692;23.342;2023-02-28T06:39:41;95922.16;;;7.52;81.08
52957;BME280;38819;42.692;23.342;2023-02-28T06:42:07;95933.16;;;7.51;81.14
52957;BME280;38819;42.692;23.342;2023-02-28T06:44:32;95926.19;;;7.55;81.05
52957;BME280;38819;42.692;23.342;2023-02-28T06:47:00;95932.69;;;7.59;81.05
52957;BME280;38819;42.692;23.342;2023-02-28T06:49:28;95928.25;;;7.75;80.88
52957;BME280;38819;42.692;23.342;2023-02-28T06:51:54;95922.97;;;7.85;79.98
52957;BME280;38819;42.692;23.342;2023-02-28T06:54:19;95931.66;;;7.97;79.84
52957;BME280;38819;42.692;23.342;2023-02-28T06:56:45;95929.03;;;8.08;79.30
52957;BME280;38819;42.692;23.342;2023-02-28T06:59:10;95935.31;;;8.19;79.09
52957;BME280;38819;42.692;23.342;2023-02-28T07:01:36;95936.94;;;8.25;79.03
52957;BME280;38819;42.692;23.342;2023-02-28T07:04:02;95932.69;;;8.29;78.90
52957;BME280;38819;42.692;23.342;2023-02-28T07:06:28;95933.75;;;8.33;78.36
52957;BME280;38819;42.692;23.342;2023-02-28T07:08:54;95928.31;;;8.23;78.20
52957;BME280;38819;42.692;23.342;2023-02-28T07:11:20;95930.50;;;8.26;78.09
52957;BME280;38819;42.692;23.342;2023-02-28T07:13:48;95935.84;;;8.21;78.40
52957;BME280;38819;42.692;23.342;2023-02-28T07:16:14;95927.81;;;8.26;78.79
52957;BME280;38819;42.692;23.342;2023-02-28T07:18:39;95924.31;;;8.25;78.67
52957;BME280;38819;42.692;23.342;2023-02-28T07:21:07;95924.31;;;8.25;78.80
52957;BME280;38819;42.692;23.342;2023-02-28T07:23:33;95927.84;;;8.31;78.81
52957;BME280;38819;42.692;23.342;2023-02-28T07:25:59;95925.66;;;8.28;78.47
52957;BME280;38819;42.692;23.342;2023-02-28T07:28:24;95928.63;;;8.26;78.55
52957;BME280;38819;42.692;23.342;2023-02-28T07:30:50;95938.59;;;8.31;78.70
52957;BME280;38819;42.692;23.342;2023-02-28T07:33:15;95938.56;;;8.26;78.97
52957;BME280;38819;42.692;23.342;2023-02-28T07:35:41;95928.66;;;8.37;78.39
52957;BME280;38819;42.692;23.342;2023-02-28T07:38:07;95931.72;;;8.45;78.13
52957;BME280;38819;42.692;23.342;2023-02-28T07:40:33;95931.34;;;8.37;77.94
52957;BME280;38819;42.692;23.342;2023-02-28T07:43:00;95938.59;;;8.31;78.55
52957;BME280;38819;42.692;23.342;2023-02-28T07:45:26;95929.50;;;8.37;78.49
52957;BME280;38819;42.692;23.342;2023-02-28T07:47:54;95935.16;;;8.41;78.21
52957;BME280;38819;42.692;23.342;2023-02-28T07:50:20;95933.06;;;8.48;78.29
52957;BME280;38819;42.692;23.342;2023-02-28T07:52:46;95926.41;;;8.56;78.29
52957;BME280;38819;42.692;23.342;2023-02-28T07:55:11;95930.16;;;8.55;77.98
52957;BME280;38819;42.692;23.342;2023-02-28T07:57:37;95931.22;;;8.53;77.98
52957;BME280;38819;42.692;23.342;2023-02-28T08:00:04;95926.97;;;8.68;77.87
52957;BME280;38819;42.692;23.342;2023-02-28T08:02:30;95927.00;;;8.73;78.10
52957;BME280;38819;42.692;23.342;2023-02-28T08:04:55;95917.88;;;8.79;77.90
52957;BME280;38819;42.692;23.342;2023-02-28T08:07:21;95917.09;;;8.84;77.99
52957;BME280;38819;42.692;23.342;2023-02-28T08:09:47;95925.75;;;9.01;77.86
52957;BME280;38819;42.692;23.342;2023-02-28T08:12:12;95916.88;;;9.06;77.49
52957;BME280;38819;42.692;23.342;2023-02-28T08:14:38;95926.63;;;9.22;77.46
52957;BME280;38819;42.692;23.342;2023-02-28T08:17:05;95921.53;;;9.31;77.12
52957;BME280;38819;42.692;23.342;2023-02-28T08:19:31;95917.50;;;9.39;76.46
52957;BME280;38819;42.692;23.342;2023-02-28T08:21:57;95924.50;;;9.40;76.06
52957;BME280;38819;42.692;23.342;2023-02-28T08:24:22;95922.31;;;9.37;76.49
52957;BME280;38819;42.692;23.342;2023-02-28T08:26:48;95925.28;;;9.40;76.99
52957;BME280;38819;42.692;23.342;2023-02-28T08:29:13;95930.41;;;9.37;77.49
52957;BME280;38819;42.692;23.342;2023-02-28T08:31:39;95932.06;;;9.43;77.69
52957;BME280;38819;42.692;23.342;2023-02-28T08:34:08;95935.28;;;9.50;77.52
52957;BME280;38819;42.692;23.342;2023-02-28T08:36:36;95933.97;;;9.58;77.56
52957;BME280;38819;42.692;23.342;2023-02-28T08:39:01;95932.34;;;9.52;78.37
52957;BME280;38819;42.692;23.342;2023-02-28T08:41:27;95937.72;;;9.57;78.38
52957;BME280;38819;42.692;23.342;2023-02-28T08:43:52;95934.22;;;9.56;79.04
52957;BME280;38819;42.692;23.342;2023-02-28T08:46:19;95931.25;;;9.53;79.50
52957;BME280;38819;42.692;23.342;2023-02-28T08:48:44;95930.44;;;9.42;80.60
52957;BME280;38819;42.692;23.342;2023-02-28T08:51:15;95930.44;;;9.42;81.42
52957;BME280;38819;42.692;23.342;2023-02-28T08:53:44;95917.78;;;9.53;82.06
52957;BME280;38819;42.692;23.342;2023-02-28T08:56:13;95925.88;;;9.58;82.19
52957;BME280;38819;42.692;23.342;2023-02-28T08:58:39;95925.06;;;9.68;82.44
52957;BME280;38819;42.692;23.342;2023-02-28T09:01:22;95923.19;;;9.83;82.61
52957;BME280;38819;42.692;23.342;2023-02-28T09:03:49;95929.13;;;10.01;82.29
52957;BME280;38819;42.692;23.342;2023-02-28T09:06:15;95924.75;;;10.20;82.28
52957;BME280;38819;42.692;23.342;2023-02-28T09:08:41;95919.94;;;10.12;82.14
52957;BME280;38819;42.692;23.342;2023-02-28T09:11:08;95918.03;;;10.18;81.75
52957;BME280;38819;42.692;23.342;2023-02-28T09:13:33;95923.94;;;10.25;81.25
52957;BME280;38819;42.692;23.342;2023-02-28T09:16:01;95923.94;;;10.35;80.66
52957;BME280;38819;42.692;23.342;2023-02-28T09:18:27;95915.31;;;10.33;80.24
52957;BME280;38819;42.692;23.342;2023-02-28T09:20:53;95917.44;;;10.47;79.61
52957;BME280;38819;42.692;23.342;2023-02-28T09:23:18;95917.72;;;10.45;79.48
52957;BME280;38819;42.692;23.342;2023-02-28T09:25:52;95929.59;;;10.54;79.24
52957;BME280;38819;42.692;23.342;2023-02-28T09:28:19;95921.19;;;10.66;78.68
52957;BME280;38819;42.692;23.342;2023-02-28T09:30:47;95923.31;;;10.74;78.41
52957;BME280;38819;42.692;23.342;2023-02-28T09:33:14;95911.38;;;10.86;77.82
52957;BME280;38819;42.692;23.342;2023-02-28T09:35:39;95913.50;;;10.94;77.41
52957;BME280;38819;42.692;23.342;2023-02-28T09:38:05;95906.97;;;11.05;77.56
52957;BME280;38819;42.692;23.342;2023-02-28T09:40:35;95905.06;;;11.06;77.66
52957;BME280;38819;42.692;23.342;2023-02-28T09:43:02;95911.00;;;11.08;76.70
52957;BME280;38819;42.692;23.342;2023-02-28T09:45:32;95912.59;;;11.14;76.26
52957;BME280;38819;42.692;23.342;2023-02-28T09:48:22;95917.53;;;10.97;76.10
52957;BME280;38819;42.692;23.342;2023-02-28T09:50:51;95911.88;;;10.98;76.33
52957;BME280;38819;42.692;23.342;2023-02-28T09:53:29;95910.75;;;11.04;75.95
52957;BME280;38819;42.692;23.342;2023-02-28T09:56:10;95903.66;;;11.13;75.35
52957;BME280;38819;42.692;23.342;2023-02-28T09:58:53;95899.03;;;11.24;75.77
52957;BME280;38819;42.692;23.342;2023-02-28T10:06:20;95893.31;;;11.26;74.78
52957;BME280;38819;42.692;23.342;2023-02-28T10:08:58;95899.28;;;11.28;74.77
52957;BME280;38819;42.692;23.342;2023-02-28T10:11:27;95888.94;;;11.35;74.56
52957;BME280;38819;42.692;23.342;2023-02-28T10:16:40;95885.75;;;11.28;73.85
52957;BME280;38819;42.692;23.342;2023-02-28T10:22:05;95884.97;;;11.22;73.34
52957;BME280;38819;42.692;23.342;2023-02-28T10:24:39;95873.84;;;11.24;73.58
52957;BME280;38819;42.692;23.342;2023-02-28T10:29:38;95865.47;;;11.25;73.00
52957;BME280;38819;42.692;23.342;2023-02-28T10:32:05;95869.78;;;11.31;73.08
52957;BME280;38819;42.692;23.342;2023-02-28T10:34:31;95875.94;;;11.37;73.68
52957;BME280;38819;42.692;23.342;2023-02-28T10:36:58;95863.81;;;11.35;72.04
52957;BME280;38819;42.692;23.342;2023-02-28T10:39:46;95869.09;;;11.50;71.98
52957;BME280;38819;42.692;23.342;2023-02-28T10:42:27;95852.59;;;11.52;71.84
52957;BME280;38819;42.692;23.342;2023-02-28T10:47:41;95849.34;;;11.49;71.27
52957;BME280;38819;42.692;23.342;2023-02-28T10:58:51;95829.50;;;11.59;71.34
52957;BME280;38819;42.692;23.342;2023-02-28T11:03:55;95831.94;;;11.90;72.53
52957;BME280;38819;42.692;23.342;2023-02-28T11:06:26;95816.78;;;11.89;70.69
52957;BME280;38819;42.692;23.342;2023-02-28T11:09:04;95818.00;;;11.78;71.01
52957;BME280;38819;42.692;23.342;2023-02-28T11:11:43;95811.16;;;11.85;70.17
52957;BME280;38819;42.692;23.342;2023-02-28T11:14:20;95817.88;;;11.93;69.75
52957;BME280;38819;42.692;23.342;2023-02-28T11:16:48;95816.03;;;11.83;70.07
52957;BME280;38819;42.692;23.342;2023-02-28T11:19:25;95810.63;;;11.83;69.83
52957;BME280;38819;42.692;23.342;2023-02-28T11:21:57;95811.75;;;11.77;70.05
52957;BME280;38819;42.692;23.342;2023-02-28T11:24:35;95813.34;;;11.83;70.39
52957;BME280;38819;42.692;23.342;2023-02-28T11:27:03;95807.63;;;11.85;69.96
52957;BME280;38819;42.692;23.342;2023-02-28T11:29:31;95802.16;;;11.95;69.88
52957;BME280;38819;42.692;23.342;2023-02-28T11:34:34;95806.31;;;12.12;69.28
52957;BME280;38819;42.692;23.342;2023-02-28T11:37:01;95796.69;;;12.00;68.53
52957;BME280;38819;42.692;23.342;2023-02-28T11:39:30;95791.88;;;11.92;69.13
52957;BME280;38819;42.692;23.342;2023-02-28T11:42:15;95798.94;;;11.93;68.74
52957;BME280;38819;42.692;23.342;2023-02-28T12:10:28;95793.63;;;12.07;67.65
52957;BME280;38819;42.692;23.342;2023-02-28T12:13:15;95793.06;;;12.10;67.24
52957;BME280;38819;42.692;23.342;2023-02-28T12:15:58;95784.09;;;12.15;67.61
52957;BME280;38819;42.692;23.342;2023-02-28T12:26:45;95788.00;;;12.03;67.91
52957;BME280;38819;42.692;23.342;2023-02-28T12:29:19;95776.75;;;12.15;67.83
52957;BME280;38819;42.692;23.342;2023-02-28T12:32:05;95783.09;;;12.30;67.68
52957;BME280;38819;42.692;23.342;2023-02-28T12:34:34;95787.41;;;12.31;67.55
52957;BME280;38819;42.692;23.342;2023-02-28T12:37:06;95782.22;;;12.34;67.02
52957;BME280;38819;42.692;23.342;2023-02-28T12:39:37;95782.84;;;12.50;66.94
52957;BME280;38819;42.692;23.342;2023-02-28T12:42:10;95784.63;;;12.36;65.71
52957;BME280;38819;42.692;23.342;2023-02-28T12:44:58;95773.63;;;12.27;66.17
52957;BME280;38819;42.692;23.342;2023-02-28T12:47:24;95766.50;;;12.36;66.69
52957;BME280;38819;42.692;23.342;2023-02-28T12:49:54;95774.72;;;12.26;66.09
52957;BME280;38819;42.692;23.342;2023-02-28T12:55:06;95771.38;;;12.34;66.43
52957;BME280;38819;42.692;23.342;2023-02-28T13:00:12;95775.72;;;12.54;65.65
52957;BME280;38819;42.692;23.342;2023-02-28T13:02:57;95775.72;;;12.54;65.47
52957;BME280;38819;42.692;23.342;2023-02-28T13:10:44;95769.44;;;12.59;65.28
52957;BME280;38819;42.692;23.342;2023-02-28T13:13:29;95775.00;;;12.49;65.08
52957;BME280;38819;42.692;23.342;2023-02-28T13:16:03;95761.06;;;12.36;65.81
52957;BME280;38819;42.692;23.342;2023-02-28T13:21:00;95759.66;;;12.39;65.37
52957;BME280;38819;42.692;23.342;2023-02-28T13:23:59;95763.44;;;12.43;65.14
52957;BME280;38819;42.692;23.342;2023-02-28T13:34:32;95759.44;;;12.35;65.77
52957;BME280;38819;42.692;23.342;2023-02-28T13:39:56;95758.81;;;12.44;65.60
52957;BME280;38819;42.692;23.342;2023-02-28T13:47:53;95748.78;;;12.44;65.02
52957;BME280;38819;42.692;23.342;2023-02-28T14:06:37;95748.00;;;12.82;63.89
52957;BME280;38819;42.692;23.342;2023-02-28T14:11:39;95740.38;;;12.65;64.00
52957;BME280;38819;42.692;23.342;2023-02-28T14:14:07;95747.63;;;12.69;64.15
52957;BME280;38819;42.692;23.342;2023-02-28T14:16:39;95752.66;;;12.76;63.96
52957;BME280;38819;42.692;23.342;2023-02-28T14:19:28;95757.72;;;12.83;63.88
52957;BME280;38819;42.692;23.342;2023-02-28T14:24:59;95753.63;;;12.85;64.20
52957;BME280;38819;42.692;23.342;2023-02-28T14:28:02;95753.41;;;12.82;64.26
52957;BME280;38819;42.692;23.342;2023-02-28T14:36:21;95764.88;;;12.54;64.95
52957;BME280;38819;42.692;23.342;2023-02-28T14:38:56;95761.97;;;12.51;64.93
52957;BME280;38819;42.692;23.342;2023-02-28T14:41:31;95756.03;;;12.49;65.32
52957;BME280;38819;42.692;23.342;2023-02-28T14:44:01;95759.75;;;12.53;65.07
52957;BME280;38819;42.692;23.342;2023-02-28T14:46:34;95763.00;;;12.55;65.03
52957;BME280;38819;42.692;23.342;2023-02-28T14:49:05;95757.59;;;12.55;65.26
52957;BME280;38819;42.692;23.342;2023-02-28T14:51:33;95751.13;;;12.51;65.66
52957;BME280;38819;42.692;23.342;2023-02-28T14:54:00;95764.59;;;12.37;65.55
52957;BME280;38819;42.692;23.342;2023-02-28T14:56:39;95762.88;;;12.41;65.93
52957;BME280;38819;42.692;23.342;2023-02-28T14:59:17;95762.09;;;12.40;65.83
52957;BME280;38819;42.692;23.342;2023-02-28T15:01:47;95764.28;;;12.38;65.76
52957;BME280;38819;42.692;23.342;2023-02-28T15:04:23;95768.19;;;12.51;65.53
52957;BME280;38819;42.692;23.342;2023-02-28T15:07:09;95761.75;;;12.47;65.93
52957;BME280;38819;42.692;23.342;2023-02-28T15:09:35;95761.66;;;12.33;66.32
52957;BME280;38819;42.692;23.342;2023-02-28T15:12:01;95756.59;;;12.27;66.45
52957;BME280;38819;42.692;23.342;2023-02-28T15:14:28;95757.91;;;12.29;66.35
52957;BME280;38819;42.692;23.342;2023-02-28T15:17:02;95752.66;;;12.14;66.58
52957;BME280;38819;42.692;23.342;2023-02-28T15:19:34;95751.31;;;12.16;66.65
52957;BME280;38819;42.692;23.342;2023-02-28T15:22:05;95756.66;;;12.21;66.63
52957;BME280;38819;42.692;23.342;2023-02-28T15:24:38;95768.00;;;12.23;66.77
52957;BME280;38819;42.692;23.342;2023-02-28T15:27:10;95766.44;;;12.17;67.06
52957;BME280;38819;42.692;23.342;2023-02-28T15:29:44;95765.28;;;11.99;67.81
52957;BME280;38819;42.692;23.342;2023-02-28T15:32:44;95781.09;;;11.87;68.12
52957;BME280;38819;42.692;23.342;2023-02-28T15:35:26;95784.47;;;11.74;69.01
52957;BME280;38819;42.692;23.342;2023-02-28T15:37:58;95782.50;;;11.79;69.24
52957;BME280;38819;42.692;23.342;2023-02-28T15:48:02;95773.13;;;11.42;70.37
52957;BME280;38819;42.692;23.342;2023-02-28T15:50:28;95771.56;;;11.36;70.87
52957;BME280;38819;42.692;23.342;2023-02-28T15:52:54;95775.91;;;11.32;71.17
52957;BME280;38819;42.692;23.342;2023-02-28T15:55:22;95777.69;;;11.12;71.32
52957;BME280;38819;42.692;23.342;2023-02-28T15:57:54;95787.72;;;11.07;71.45
52957;BME280;38819;42.692;23.342;2023-02-28T16:00:25;95785.59;;;11.04;71.66